Big Timber, Montana
Current Conditions -  °F | °C
As of 9:53 AM on Wednesday 22 Oct 2014 (Local Time) from KLVM Reporting Station
Clear Clear  
Wind Chill: 41°   Ceiling: Unl
Heat Index: 48°   Visibility: 10mi
Dew Point: 28°   Wind: 20mph
Humidity: 46%   Direction: 280°W
Pressure: 30.06"   Gusts: NA
Location:  45.83°N, 109.96°W
Report Text: KLVM 221553Z AUTO 28017KT 10SM CLR 09/M02 A3006 RMK AO2 SLP174 T00891022
Loading
Personal Weather Stations






























Interactive Weather Map
Tropical Storm Tracking
New forecast layout! Learn more

10-Day Weather Forecast

Advertisements
Track Severe Weather on mobile